Time;durP1;ratioP1;P1;durP2;ratioP2;P2;SDS_P1;SDS_P2;PMS_P1;PMS_P2;Temp;Humidity;BMP_temperature;BMP_pressure;BME280_temperature;BME280_humidity;BME280_pressure;Samples;Min_cycle;Max_cycle;Signal;HPM_P1;HPM_P2
2021/06/20 00:01:44;;;;;;;11.23;7.68;;;24.80;45.10;;;;;;4938280;29;20038;-88
2021/06/20 00:04:09;;;;;;;14.45;7.85;;;24.80;45.20;;;;;;4937844;29;20035;-88
2021/06/20 00:06:37;;;;;;;12.15;7.88;;;24.80;45.30;;;;;;4938161;29;20103;-86
2021/06/20 00:09:07;;;;;;;10.45;7.68;;;24.80;45.30;;;;;;4935472;29;20023;-86
2021/06/20 00:11:35;;;;;;;10.73;7.75;;;24.80;45.50;;;;;;4938192;29;20024;-86
2021/06/20 00:14:01;;;;;;;13.05;8.45;;;24.80;45.40;;;;;;4937323;29;20465;-86
2021/06/20 00:16:27;;;;;;;11.10;8.18;;;24.80;45.60;;;;;;4937794;29;20432;-86
2021/06/20 00:18:53;;;;;;;12.25;8.85;;;24.80;45.60;;;;;;4929903;29;20026;-88
2021/06/20 00:21:20;;;;;;;14.07;9.25;;;24.70;45.70;;;;;;4937787;29;20028;-88
2021/06/20 00:23:46;;;;;;;15.32;9.63;;;24.70;45.90;;;;;;4938003;29;20378;-88
2021/06/20 00:26:12;;;;;;;12.68;9.32;;;24.60;45.90;;;;;;4934679;29;20020;-88
2021/06/20 00:28:38;;;;;;;12.70;9.60;;;24.50;46.10;;;;;;4937777;29;20103;-88
2021/06/20 00:31:04;;;;;;;13.43;9.65;;;24.50;46.30;;;;;;4937639;29;20035;-88
2021/06/20 00:33:29;;;;;;;12.35;9.15;;;24.50;46.40;;;;;;4935415;29;20103;-88
2021/06/20 00:35:57;;;;;;;13.45;9.50;;;24.50;46.60;;;;;;4937710;29;20035;-89
2021/06/20 00:38:23;;;;;;;12.50;9.25;;;24.50;46.70;;;;;;4937166;29;20015;-88
2021/06/20 00:40:49;;;;;;;12.57;9.25;;;24.40;46.70;;;;;;4937759;29;20501;-88
2021/06/20 00:43:14;;;;;;;15.20;9.43;;;24.40;46.90;;;;;;4937123;29;20032;-88
2021/06/20 00:45:40;;;;;;;14.75;8.63;;;24.40;47.10;;;;;;4942011;29;20172;-87
2021/06/20 00:48:07;;;;;;;12.82;9.05;;;24.40;47.20;;;;;;4938768;29;20105;-87
2021/06/20 00:50:32;;;;;;;12.60;9.48;;;24.40;47.20;;;;;;4938609;29;20030;-86
2021/06/20 00:53:00;;;;;;;13.45;9.38;;;24.40;47.40;;;;;;4938391;29;20035;-88
2021/06/20 00:55:30;;;;;;;13.25;9.10;;;24.30;47.30;;;;;;4938692;29;20016;-88
2021/06/20 00:58:00;;;;;;;12.95;8.82;;;24.30;47.60;;;;;;4939111;29;20024;-87
2021/06/20 01:00:27;;;;;;;12.85;9.23;;;24.30;47.70;;;;;;4940051;29;20020;-88
2021/06/20 01:02:55;;;;;;;14.05;9.32;;;24.20;47.60;;;;;;4938910;29;20506;-87
2021/06/20 01:05:33;;;;;;;;;;;;;;;;;;;;;
2021/06/20 01:07:59;;;;;;;12.52;8.98;;;24.20;47.90;;;;;;4938372;29;20032;-87
2021/06/20 01:10:35;;;;;;;16.48;10.20;;;24.20;47.90;;;;;;4922023;29;20381;-87
2021/06/20 01:13:12;;;;;;;14.55;9.52;;;24.20;48.10;;;;;;4933126;29;20015;-87
2021/06/20 01:16:06;;;;;;;12.18;9.10;;;24.20;48.00;;;;;;4924970;29;20031;-87
2021/06/20 01:18:46;;;;;;;14.32;10.45;;;24.20;48.00;;;;;;4921997;29;20118;-87
2021/06/20 01:21:38;;;;;;;14.25;9.73;;;24.10;48.20;;;;;;4921749;29;20480;-87
2021/06/20 01:24:27;;;;;;;13.30;9.65;;;24.10;48.20;;;;;;4921879;29;20078;-88
2021/06/20 01:26:57;;;;;;;13.65;10.40;;;24.10;48.40;;;;;;4936793;29;20043;-88
2021/06/20 01:29:32;;;;;;;13.95;9.95;;;24.10;48.50;;;;;;4921317;29;20031;-88
2021/06/20 01:38:42;;;;;;;15.45;10.07;;;23.90;48.80;;;;;;4911204;29;20031;-87
2021/06/20 01:41:34;;;;;;;12.05;9.00;;;23.90;48.80;;;;;;4921784;29;20027;-87
2021/06/20 01:44:09;;;;;;;14.50;9.65;;;23.90;48.90;;;;;;4932964;29;20066;-87
2021/06/20 01:46:38;;;;;;;12.05;9.18;;;23.90;49.20;;;;;;4931246;29;20039;-88
2021/06/20 01:49:04;;;;;;;12.77;9.18;;;23.90;49.20;;;;;;4949152;29;20035;-87
2021/06/20 01:51:29;;;;;;;12.00;8.77;;;23.90;49.30;;;;;;4933212;29;20032;-87
2021/06/20 01:53:58;;;;;;;14.10;9.55;;;23.90;49.40;;;;;;4936241;29;20055;-86
2021/06/20 01:56:26;;;;;;;14.45;9.68;;;23.90;49.50;;;;;;4935553;29;20020;-88
2021/06/20 01:58:51;;;;;;;13.55;9.15;;;23.90;49.60;;;;;;4935853;29;20103;-88
2021/06/20 02:01:19;;;;;;;12.43;9.23;;;23.90;49.60;;;;;;4933749;29;20123;-88
2021/06/20 02:03:45;;;;;;;13.63;9.32;;;23.80;49.60;;;;;;4933901;29;20040;-88
2021/06/20 02:06:11;;;;;;;15.77;9.82;;;23.80;49.70;;;;;;4934509;29;20102;-88
2021/06/20 02:08:36;;;;;;;13.23;9.98;;;23.90;49.90;;;;;;4935546;29;20484;-88
2021/06/20 02:11:02;;;;;;;14.93;10.85;;;23.80;50.00;;;;;;4933381;29;20059;-88
2021/06/20 02:13:29;;;;;;;13.93;10.32;;;23.70;50.00;;;;;;4935817;29;20031;-88
2021/06/20 02:15:55;;;;;;;14.18;10.05;;;23.70;50.10;;;;;;4935936;29;20420;-89
2021/06/20 02:18:23;;;;;;;14.45;10.50;;;23.70;50.30;;;;;;4933549;29;20023;-87
2021/06/20 02:20:49;;;;;;;14.90;10.82;;;23.60;50.50;;;;;;4932981;29;20026;-88
2021/06/20 02:23:15;;;;;;;14.45;11.13;;;23.60;50.60;;;;;;4949184;29;20043;-87
2021/06/20 02:25:43;;;;;;;13.10;10.23;;;23.60;50.70;;;;;;4935149;29;20117;-86
2021/06/20 02:28:09;;;;;;;13.18;10.57;;;23.60;50.80;;;;;;4935435;29;20429;-88
2021/06/20 02:30:35;;;;;;;13.30;10.30;;;23.50;50.90;;;;;;4932372;29;20051;-88
2021/06/20 02:33:00;;;;;;;13.55;9.80;;;23.50;50.90;;;;;;4932801;29;20119;-88
2021/06/20 02:35:26;;;;;;;12.93;9.95;;;23.50;51.00;;;;;;4935486;29;20020;-88
2021/06/20 02:37:53;;;;;;;14.18;10.30;;;23.50;51.20;;;;;;4935242;29;20476;-88
2021/06/20 02:40:19;;;;;;;14.02;10.38;;;23.50;51.20;;;;;;4935627;29;20023;-88
2021/06/20 02:42:46;;;;;;;14.40;10.60;;;23.40;51.30;;;;;;4935162;29;20465;-88
2021/06/20 02:45:15;;;;;;;12.25;9.73;;;23.40;51.40;;;;;;4925588;29;20044;-88
2021/06/20 02:48:00;;;;;;;14.73;10.35;;;23.40;51.50;;;;;;4919663;29;20034;-87
2021/06/20 02:50:49;;;;;;;16.42;10.10;;;23.40;51.60;;;;;;4926008;29;20020;-87
2021/06/20 02:53:22;;;;;;;12.70;10.07;;;23.40;51.50;;;;;;4917939;29;20043;-87
2021/06/20 02:56:00;;;;;;;13.82;10.25;;;23.40;51.70;;;;;;4918299;29;20130;-87
2021/06/20 02:58:42;;;;;;;13.48;10.23;;;23.30;51.80;;;;;;4924722;29;20024;-87
2021/06/20 03:01:08;;;;;;;14.45;10.57;;;23.30;51.80;;;;;;4919383;29;20587;-89
2021/06/20 03:03:33;;;;;;;14.35;10.10;;;23.30;51.90;;;;;;4951070;29;20114;-89
2021/06/20 03:06:02;;;;;;;13.90;10.50;;;23.20;51.80;;;;;;4929662;29;20130;-86
2021/06/20 03:08:29;;;;;;;12.50;9.77;;;23.20;51.90;;;;;;4924749;29;20272;-87
2021/06/20 03:10:54;;;;;;;14.43;10.48;;;23.10;52.10;;;;;;4948902;29;20030;-88
2021/06/20 03:13:21;;;;;;;15.15;9.90;;;23.10;52.10;;;;;;4952223;29;20047;-88
2021/06/20 03:15:47;;;;;;;14.25;10.27;;;23.10;52.40;;;;;;4944692;29;20102;-88
2021/06/20 03:18:12;;;;;;;13.27;10.02;;;23.10;52.40;;;;;;4926280;29;20167;-88
2021/06/20 03:20:39;;;;;;;14.95;10.77;;;23.10;52.50;;;;;;4934833;29;20047;-89
2021/06/20 03:23:09;;;;;;;15.18;9.95;;;23.00;52.40;;;;;;4918964;29;20035;-88
2021/06/20 03:25:35;;;;;;;13.63;10.02;;;23.00;52.60;;;;;;4934881;29;20404;-88
2021/06/20 03:28:04;;;;;;;13.68;10.13;;;23.00;52.70;;;;;;4923746;29;20043;-87
2021/06/20 03:30:29;;;;;;;11.98;9.50;;;23.00;52.80;;;;;;4936578;29;20026;-88
2021/06/20 03:32:55;;;;;;;13.82;9.65;;;23.00;53.00;;;;;;4936421;29;20388;-89
2021/06/20 03:35:21;;;;;;;12.88;9.43;;;23.10;53.10;;;;;;4935927;29;20150;-88
2021/06/20 03:37:46;;;;;;;13.40;9.70;;;23.10;53.20;;;;;;4935231;29;20024;-88
2021/06/20 03:40:12;;;;;;;14.20;10.23;;;23.10;53.60;;;;;;4935274;29;20028;-88
2021/06/20 03:42:58;;;;;;;14.23;10.43;;;23.20;53.50;;;;;;4935326;29;20370;-88
2021/06/20 03:45:44;;;;;;;14.45;10.13;;;23.30;53.70;;;;;;4929240;29;20039;-88
2021/06/20 03:48:31;;;;;;;13.95;10.95;;;23.30;53.50;;;;;;4934914;29;20051;-88
2021/06/20 03:51:36;;;;;;;13.93;9.43;;;23.30;53.60;;;;;;4934041;29;20078;-88
2021/06/20 03:54:20;;;;;;;14.60;9.30;;;23.30;53.60;;;;;;4934887;29;20510;-88
2021/06/20 03:56:56;;;;;;;;;;;23.40;53.80;;;;;;4935400;29;20028;-88
2021/06/20 03:59:25;;;;;;;13.02;9.10;;;23.50;53.60;;;;;;4928494;29;19906;-87
2021/06/20 04:01:57;;;;;;;13.93;9.52;;;23.50;53.80;;;;;;4919056;29;20067;-87
2021/06/20 04:04:38;;;;;;;14.82;9.73;;;23.60;54.00;;;;;;4918391;29;20044;-87
2021/06/20 04:07:14;;;;;;;11.50;9.10;;;23.60;54.00;;;;;;4918140;29;20437;-87
2021/06/20 04:09:41;;;;;;;13.77;9.88;;;23.70;54.10;;;;;;4940674;29;20078;-87
2021/06/20 04:12:10;;;;;;;13.00;9.25;;;23.80;54.10;;;;;;4934664;29;20098;-88
2021/06/20 04:14:38;;;;;;;15.10;10.00;;;23.80;54.20;;;;;;4937885;29;20104;-88
2021/06/20 04:17:04;;;;;;;13.23;9.52;;;24.00;54.30;;;;;;4938048;29;20019;-88
2021/06/20 04:19:30;;;;;;;14.13;9.90;;;24.00;54.30;;;;;;4938467;29;20028;-87
2021/06/20 04:21:56;;;;;;;12.80;9.95;;;24.00;54.30;;;;;;4938278;29;20067;-87
2021/06/20 04:24:21;;;;;;;13.52;9.75;;;24.00;54.40;;;;;;4936910;29;20051;-87
2021/06/20 04:26:47;;;;;;;16.63;10.40;;;24.00;54.40;;;;;;4938627;29;20028;-87
2021/06/20 04:29:13;;;;;;;15.13;10.10;;;24.10;54.50;;;;;;4936661;29;20524;-87
2021/06/20 04:31:39;;;;;;;16.30;10.73;;;24.10;54.70;;;;;;4936749;29;20028;-87
2021/06/20 04:34:04;;;;;;;12.60;10.07;;;24.10;54.60;;;;;;4928849;29;20028;-87
2021/06/20 04:36:30;;;;;;;14.00;10.25;;;24.20;54.80;;;;;;4937951;29;20028;-87
2021/06/20 04:38:56;;;;;;;13.00;10.13;;;24.20;54.80;;;;;;4937703;29;20031;-88
2021/06/20 04:41:23;;;;;;;13.57;10.30;;;24.20;54.90;;;;;;4938215;29;20023;-87
2021/06/20 04:46:22;;;;;;;13.15;10.20;;;24.30;55.10;;;;;;4937521;29;20050;-88
2021/06/20 04:49:23;;;;;;;14.30;11.17;;;24.40;55.30;;;;;;4921394;29;20032;-88
2021/06/20 04:51:49;;;;;;;14.00;9.90;;;24.50;55.40;;;;;;4920780;29;20040;-88
2021/06/20 04:54:16;;;;;;;15.75;10.85;;;24.50;55.30;;;;;;4920958;29;20028;-86
2021/06/20 04:56:43;;;;;;;19.15;11.60;;;24.60;55.50;;;;;;4936951;29;20416;-86
2021/06/20 04:59:09;;;;;;;16.85;11.48;;;24.70;55.70;;;;;;4937596;29;20078;-86
2021/06/20 05:01:38;;;;;;;15.30;12.20;;;24.80;55.70;;;;;;4937371;29;20024;-86
2021/06/20 05:04:08;;;;;;;15.43;12.65;;;24.80;55.80;;;;;;4936154;29;20035;-86
2021/06/20 05:06:34;;;;;;;13.95;11.93;;;24.90;56.50;;;;;;4937557;29;20015;-86
2021/06/20 05:09:00;;;;;;;14.27;10.98;;;25.00;56.60;;;;;;4937155;29;20083;-87
2021/06/20 05:11:25;;;;;;;16.80;11.52;;;25.10;56.10;;;;;;4936209;29;20016;-87
2021/06/20 05:13:51;;;;;;;12.77;10.93;;;25.20;56.40;;;;;;4937353;29;20032;-88
2021/06/20 05:16:16;;;;;;;14.77;11.05;;;25.40;56.60;;;;;;4937400;29;20055;-88
2021/06/20 05:18:42;;;;;;;13.63;11.07;;;25.60;56.30;;;;;;4936938;29;20057;-89
2021/06/20 05:21:08;;;;;;;15.15;11.80;;;25.70;56.20;;;;;;4937486;29;20052;-88
2021/06/20 05:23:33;;;;;;;12.90;10.38;;;25.80;56.20;;;;;;4933623;29;20039;-85
2021/06/20 05:25:59;;;;;;;12.68;10.55;;;25.90;56.30;;;;;;4951125;29;20102;-85
2021/06/20 05:28:25;;;;;;;13.18;10.02;;;26.00;56.50;;;;;;4944519;29;20070;-85
2021/06/20 05:30:50;;;;;;;14.43;10.30;;;26.10;56.60;;;;;;4934940;29;20027;-84
2021/06/20 05:33:18;;;;;;;14.05;10.43;;;26.30;56.70;;;;;;4936637;29;20032;-88
2021/06/20 05:35:45;;;;;;;16.90;10.10;;;26.40;56.40;;;;;;4936513;29;20032;-88
2021/06/20 05:38:11;;;;;;;14.38;10.98;;;26.40;56.10;;;;;;4928218;29;20016;-88
2021/06/20 05:40:38;;;;;;;14.05;9.70;;;26.40;56.00;;;;;;4940760;29;20024;-88
2021/06/20 05:43:04;;;;;;;13.13;10.25;;;26.30;56.00;;;;;;4925589;29;20043;-88
2021/06/20 05:45:30;;;;;;;14.07;10.60;;;26.30;56.10;;;;;;4925909;29;20063;-89
2021/06/20 05:47:56;;;;;;;15.90;9.75;;;26.30;56.30;;;;;;4954137;28;20114;-89
2021/06/20 05:50:22;;;;;;;13.02;10.27;;;26.30;55.90;;;;;;4920360;29;20107;-90
2021/06/20 05:52:48;;;;;;;13.38;9.80;;;26.20;55.70;;;;;;4924628;29;20043;-86
2021/06/20 05:55:14;;;;;;;13.05;10.20;;;26.20;55.90;;;;;;4936079;29;20030;-85
2021/06/20 05:57:39;;;;;;;14.82;10.13;;;26.20;56.10;;;;;;4936224;29;20035;-85
2021/06/20 06:00:07;;;;;;;14.18;7.85;;;26.20;56.40;;;;;;4921973;29;20075;-85
2021/06/20 06:02:33;;;;;;;14.38;8.40;;;26.30;56.50;;;;;;4936133;29;20031;-85
2021/06/20 06:04:59;;;;;;;13.80;9.27;;;26.40;56.30;;;;;;4936586;29;20091;-85
2021/06/20 06:07:25;;;;;;;12.48;6.80;;;26.40;56.20;;;;;;4936842;29;20035;-85
2021/06/20 06:09:50;;;;;;;12.00;5.95;;;26.40;55.90;;;;;;4948023;29;20031;-85
2021/06/20 06:12:19;;;;;;;12.45;4.70;;;26.40;55.90;;;;;;4936593;29;20024;-85
2021/06/20 06:14:45;;;;;;;13.93;5.00;;;26.30;55.80;;;;;;4936193;29;20028;-89
2021/06/20 06:17:10;;;;;;;17.75;4.75;;;26.20;55.70;;;;;;4922666;29;20074;-84
2021/06/20 06:19:36;;;;;;;13.95;4.53;;;26.20;56.20;;;;;;4926411;29;20036;-84
2021/06/20 06:22:02;;;;;;;11.80;4.80;;;26.20;56.60;;;;;;4936128;29;20476;-84
2021/06/20 06:24:27;;;;;;;16.23;5.25;;;26.30;56.70;;;;;;4936415;29;20076;-84
2021/06/20 06:26:53;;;;;;;15.38;5.25;;;26.40;56.50;;;;;;4936195;29;20054;-83
2021/06/20 06:29:18;;;;;;;14.90;5.05;;;26.40;56.50;;;;;;4932411;29;20499;-82
2021/06/20 06:31:44;;;;;;;17.10;5.50;;;26.40;56.60;;;;;;4935425;29;20079;-83
2021/06/20 06:34:10;;;;;;;12.63;5.15;;;26.40;56.50;;;;;;4936221;29;20495;-83
2021/06/20 06:36:37;;;;;;;17.23;6.00;;;26.30;56.30;;;;;;4934934;29;20034;-83
2021/06/20 06:39:03;;;;;;;17.77;6.15;;;26.30;56.40;;;;;;4935949;29;20020;-83
2021/06/20 06:41:30;;;;;;;19.38;5.20;;;26.30;56.70;;;;;;4935611;29;20070;-84
2021/06/20 06:43:55;;;;;;;15.52;4.85;;;26.30;57.00;;;;;;4935674;29;20135;-84
2021/06/20 06:46:21;;;;;;;14.65;4.60;;;26.40;56.90;;;;;;4918074;29;20122;-84
2021/06/20 06:48:46;;;;;;;16.67;5.30;;;26.50;57.00;;;;;;4928820;29;20032;-84
2021/06/20 06:51:12;;;;;;;18.38;6.03;;;26.60;57.40;;;;;;4926647;29;20019;-84
2021/06/20 06:53:38;;;;;;;16.35;5.13;;;26.70;57.00;;;;;;4938385;29;20036;-84
2021/06/20 06:56:04;;;;;;;12.55;4.90;;;26.60;56.90;;;;;;4935876;29;20103;-83
2021/06/20 06:58:29;;;;;;;15.95;5.45;;;26.50;56.20;;;;;;4935195;29;20051;-84
2021/06/20 07:00:55;;;;;;;16.85;5.93;;;26.30;56.20;;;;;;4935634;29;20067;-84
2021/06/20 07:03:20;;;;;;;18.27;6.20;;;26.10;56.00;;;;;;4934558;29;20040;-84
2021/06/20 07:05:46;;;;;;;14.45;6.20;;;25.90;56.20;;;;;;4935376;29;20070;-84
2021/06/20 07:08:11;;;;;;;16.30;5.78;;;25.80;56.60;;;;;;4935239;29;20028;-84
2021/06/20 07:10:37;;;;;;;16.13;4.70;;;25.80;57.10;;;;;;4935392;29;20063;-84
2021/06/20 07:13:04;;;;;;;14.18;4.93;;;25.70;57.20;;;;;;4919271;29;20038;-84
2021/06/20 07:15:30;;;;;;;15.65;5.28;;;25.80;57.40;;;;;;4923109;29;20027;-84
2021/06/20 07:17:56;;;;;;;14.15;5.13;;;25.80;57.50;;;;;;4935082;29;20376;-84
2021/06/20 07:20:29;;;;;;;11.02;4.57;;;25.90;57.60;;;;;;4935347;29;20032;-85
2021/06/20 07:23:02;;;;;;;13.15;5.18;;;25.90;57.70;;;;;;4935590;29;20036;-86
2021/06/20 07:25:30;;;;;;;15.75;6.65;;;25.90;57.50;;;;;;4936233;29;20028;-87
2021/06/20 07:28:32;;;;;;;17.23;9.48;;;26.00;57.80;;;;;;4920352;29;20035;-87
2021/06/20 07:30:58;;;;;;;15.13;5.70;;;26.00;57.70;;;;;;4934395;29;20028;-84
2021/06/20 07:33:23;;;;;;;13.95;5.47;;;26.00;57.50;;;;;;4935009;29;20012;-84
2021/06/20 07:35:51;;;;;;;16.15;5.43;;;26.00;57.40;;;;;;4934712;29;20131;-85
2021/06/20 07:38:20;;;;;;;15.40;5.00;;;25.90;57.50;;;;;;4935085;29;20020;-85
2021/06/20 07:40:47;;;;;;;18.27;5.65;;;25.90;57.70;;;;;;4933909;29;20028;-85
2021/06/20 07:43:13;;;;;;;20.67;5.43;;;25.90;57.90;;;;;;4935091;29;20400;-85
2021/06/20 07:45:39;;;;;;;14.77;4.88;;;25.90;58.00;;;;;;4924061;29;20048;-85
2021/06/20 07:48:11;;;;;;;16.42;4.65;;;25.90;58.10;;;;;;4936124;29;20035;-85
2021/06/20 07:50:37;;;;;;;14.40;4.78;;;25.90;57.70;;;;;;4938823;29;20016;-84
2021/06/20 07:53:03;;;;;;;12.65;4.18;;;25.80;57.70;;;;;;4936579;29;20555;-84
2021/06/20 07:55:28;;;;;;;10.27;4.45;;;25.80;58.00;;;;;;4942151;29;20051;-84
2021/06/20 07:57:54;;;;;;;14.27;4.75;;;25.80;58.30;;;;;;4938846;29;20047;-85
2021/06/20 08:00:21;;;;;;;11.65;4.53;;;25.90;58.60;;;;;;4938221;29;20032;-84
2021/06/20 08:02:47;;;;;;;13.40;4.50;;;26.10;59.10;;;;;;4938439;29;20036;-85
2021/06/20 08:05:13;;;;;;;15.70;4.65;;;26.30;59.10;;;;;;4938120;29;20031;-84
2021/06/20 08:07:38;;;;;;;13.10;4.35;;;26.50;58.80;;;;;;4938698;29;20028;-85
2021/06/20 08:10:05;;;;;;;12.82;4.25;;;26.50;58.60;;;;;;4938137;29;20067;-85
2021/06/20 08:12:31;;;;;;;12.73;4.85;;;26.50;58.20;;;;;;4938614;29;20023;-85
2021/06/20 08:14:57;;;;;;;10.95;3.85;;;26.50;57.80;;;;;;4935611;29;20055;-88
2021/06/20 08:17:23;;;;;;;14.65;3.80;;;26.50;58.40;;;;;;4937929;29;20059;-86
2021/06/20 08:19:49;;;;;;;8.15;3.08;;;26.50;58.40;;;;;;4938172;29;20075;-85
2021/06/20 08:22:17;;;;;;;11.10;3.40;;;26.60;58.70;;;;;;4937915;29;20028;-85
2021/06/20 08:24:43;;;;;;;10.23;3.17;;;26.80;59.20;;;;;;4934574;29;20499;-85
2021/06/20 08:27:09;;;;;;;9.75;2.90;;;27.10;59.40;;;;;;4927568;29;20028;-85
2021/06/20 08:29:34;;;;;;;10.63;3.13;;;27.30;59.30;;;;;;4938063;29;20042;-82
2021/06/20 08:32:00;;;;;;;7.13;3.00;;;;;;;;;;4937615;29;20488;-84
2021/06/20 08:34:40;;;;;;;7.40;2.80;;;;;;;;;;4940858;29;20032;-87
2021/06/20 08:37:08;;;;;;;13.30;3.97;;;;;;;;;;4944838;29;20031;-84
2021/06/20 08:39:34;;;;;;;7.50;3.20;;;;;;;;;;4936305;29;20107;-84
2021/06/20 08:42:00;;;;;;;13.05;3.20;;;;;;;;;;4934100;29;20472;-82
2021/06/20 08:44:28;;;;;;;11.98;3.10;;;;;;;;;;4939190;29;20043;-83
2021/06/20 08:46:54;;;;;;;9.02;3.10;;;;;;;;;;4944073;29;20472;-82
2021/06/20 08:49:20;;;;;;;7.68;3.00;;;;;;;;;;4951667;29;20483;-83
2021/06/20 08:51:48;;;;;;;7.43;2.75;;;;;;;;;;4940154;29;20020;-82
2021/06/20 08:54:14;;;;;;;6.40;2.55;;;;;;;;;;4952197;29;20098;-82
2021/06/20 08:56:40;;;;;;;6.72;2.65;;;;;;;;;;4950104;29;20077;-83
2021/06/20 08:59:12;;;;;;;8.18;2.95;;;;;;;;;;4945747;29;20043;-85
2021/06/20 09:01:37;;;;;;;7.10;2.90;;;;;;;;;;4927354;29;20031;-82
2021/06/20 09:04:04;;;;;;;8.90;3.67;;;;;;;;;;4945784;29;20063;-82
2021/06/20 09:06:30;;;;;;;7.88;2.65;;;;;;;;;;4946538;29;20027;-84
2021/06/20 09:08:57;;;;;;;8.27;2.72;;;;;;;;;;4953139;29;20090;-83
2021/06/20 09:11:35;;;;;;;10.25;2.70;;;;;;;;;;4944796;29;20055;-82
2021/06/20 09:14:02;;;;;;;7.70;2.70;;;;;;;;;;4928578;29;20046;-82
2021/06/20 09:16:28;;;;;;;7.22;2.60;;;;;;;;;;4945177;29;20149;-83
2021/06/20 09:18:54;;;;;;;10.90;2.92;;;;;;;;;;4919853;29;20494;-82
2021/06/20 09:21:24;;;;;;;8.75;2.83;;;;;;;;;;4937639;29;20123;-81
2021/06/20 09:23:50;;;;;;;7.70;2.60;;;;;;;;;;4920118;29;20043;-83
2021/06/20 09:26:17;;;;;;;9.65;2.72;;;;;;;;;;4920413;29;20024;-83
2021/06/20 09:28:43;;;;;;;6.72;2.65;;;;;;;;;;4944793;29;20030;-84
2021/06/20 09:31:09;;;;;;;8.20;2.80;;;;;;;;;;4945979;29;20019;-84
2021/06/20 09:33:36;;;;;;;8.23;2.80;;;;;;;;;;4945226;29;20032;-83
2021/06/20 09:36:10;;;;;;;8.70;3.10;;;;;;;;;;4920363;29;20066;-85
2021/06/20 09:38:39;;;;;;;10.90;2.95;;;;;;;;;;4933254;29;20052;-83
2021/06/20 09:41:07;;;;;;;10.73;3.00;;;;;;;;;;4932138;29;20024;-83
2021/06/20 09:43:33;;;;;;;7.65;2.95;;;;;;;;;;4930111;29;20045;-83
2021/06/20 09:46:01;;;;;;;8.10;2.97;;;;;;;;;;4931548;29;20066;-83
2021/06/20 09:48:29;;;;;;;8.32;3.10;;;;;;;;;;4933066;29;20074;-83
2021/06/20 09:50:55;;;;;;;7.97;2.90;;;;;;;;;;4925695;29;20023;-84
2021/06/20 09:53:35;;;;;;;8.32;2.90;;;;;;;;;;4929802;29;20103;-83
2021/06/20 09:56:13;;;;;;;7.20;2.90;;;;;;;;;;4935449;29;20055;-83
2021/06/20 09:58:42;;;;;;;9.70;3.10;;;;;;;;;;4930282;29;20082;-86
2021/06/20 10:01:12;;;;;;;10.50;3.25;;;;;;;;;;4935096;29;20441;-84
2021/06/20 10:03:39;;;;;;;7.40;2.95;;;;;;;;;;4936884;29;20637;-83
2021/06/20 10:06:05;;;;;;;8.05;3.08;;;;;;;;;;4928958;29;20495;-84
2021/06/20 10:08:32;;;;;;;7.25;3.50;;;;;;;;;;4913706;29;20127;-84
2021/06/20 10:11:01;;;;;;;9.77;3.72;;;;;;;;;;4918523;29;20108;-86
2021/06/20 10:13:27;;;;;;;10.77;3.67;;;;;;;;;;4932796;29;20491;-85
2021/06/20 10:15:53;;;;;;;8.35;3.33;;;;;;;;;;4929678;29;20428;-84
2021/06/20 10:18:19;;;;;;;9.75;3.65;;;;;;;;;;4937195;29;20042;-85
2021/06/20 10:20:46;;;;;;;9.60;3.42;;;;;;;;;;4924039;29;20024;-85
2021/06/20 10:23:19;;;;;;;10.45;3.60;;;;;;;;;;4919755;29;20400;-84
2021/06/20 10:25:46;;;;;;;10.95;3.53;;;;;;;;;;4935818;29;20051;-84
2021/06/20 10:28:13;;;;;;;11.40;3.58;;;;;;;;;;4921333;29;20028;-85
2021/06/20 10:30:40;;;;;;;11.13;3.42;;;;;;;;;;4935839;29;20023;-84
2021/06/20 10:33:09;;;;;;;12.93;3.88;;;;;;;;;;4923582;29;20425;-84
2021/06/20 10:35:36;;;;;;;10.27;3.55;;;;;;;;;;4937298;29;20477;-84
2021/06/20 10:38:03;;;;;;;9.68;3.78;;;;;;;;;;4941125;29;20039;-86
2021/06/20 10:40:30;;;;;;;9.50;3.42;;;;;;;;;;4924643;29;20075;-85
2021/06/20 10:43:00;;;;;;;10.23;3.63;;;;;;;;;;4938315;29;20039;-85
2021/06/20 10:45:27;;;;;;;13.13;3.75;;;;;;;;;;4930596;29;20107;-83
2021/06/20 10:47:53;;;;;;;11.40;4.00;;;;;;;;;;4932047;29;20042;-82
2021/06/20 10:50:19;;;;;;;9.55;3.55;;;;;;;;;;4934792;29;20024;-83
2021/06/20 10:52:56;;;;;;;11.90;4.53;;;;;;;;;;4935239;29;20082;-83
2021/06/20 10:55:22;;;;;;;14.57;3.65;;;;;;;;;;4936664;29;20015;-83
2021/06/20 10:57:55;;;;;;;9.82;4.05;;;;;;;;;;4935856;29;20119;-85
2021/06/20 11:00:35;;;;;;;13.18;4.03;;;;;;;;;;4935678;29;20094;-84
2021/06/20 11:03:07;;;;;;;9.10;3.42;;;;;;;;;;4933943;29;20114;-83
2021/06/20 11:05:42;;;;;;;11.75;4.18;;;;;;;;;;4936566;29;20024;-83
2021/06/20 11:08:10;;;;;;;11.25;3.85;;;;;;;;;;4937520;29;20016;-83
2021/06/20 11:10:37;;;;;;;9.73;3.80;;;;;;;;;;4935860;29;20083;-83
2021/06/20 11:13:03;;;;;;;12.45;4.43;;;;;;;;;;4935460;29;20028;-84
2021/06/20 11:15:29;;;;;;;10.07;3.88;;;;;;;;;;4929082;29;20038;-85
2021/06/20 11:18:08;;;;;;;11.52;3.75;;;;;;;;;;4951672;29;20118;-83
2021/06/20 11:20:35;;;;;;;9.68;3.70;;;;;;;;;;4929451;29;20043;-82
2021/06/20 11:23:02;;;;;;;8.45;3.45;;;;;;;;;;4938788;29;20447;-83
2021/06/20 11:25:28;;;;;;;10.65;3.75;;;;;;;;;;4938401;29;20473;-82
2021/06/20 11:27:55;;;;;;;10.50;3.45;;;;;;;;;;4939589;29;20036;-85
2021/06/20 11:30:21;;;;;;;9.38;4.43;;;;;;;;;;4930450;29;20075;-84
2021/06/20 11:32:47;;;;;;;12.10;3.60;;;;;;;;;;4939856;29;20118;-84
2021/06/20 11:35:16;;;;;;;11.27;3.75;;;;;;;;;;4923319;29;20031;-84
2021/06/20 11:37:45;;;;;;;10.55;3.80;;;;;;;;;;4939758;29;20024;-83
2021/06/20 11:40:16;;;;;;;10.25;3.47;;;;;;;;;;4939923;29;20059;-83
2021/06/20 11:42:45;;;;;;;6.85;3.13;;;;;;;;;;4940052;29;20032;-85
2021/06/20 11:45:12;;;;;;;8.73;3.35;;;;;;;;;;4941464;29;20024;-84
2021/06/20 11:47:40;;;;;;;10.55;3.50;;;;;;;;;;4959173;29;20024;-83
2021/06/20 11:50:27;;;;;;;10.02;3.60;;;;;;;;;;4922660;29;20024;-85
2021/06/20 11:53:08;;;;;;;12.52;4.22;;;;;;;;;;4922304;29;20027;-85
2021/06/20 11:55:37;;;;;;;12.40;3.70;;;;;;;;;;4923900;29;20043;-84
2021/06/20 11:58:04;;;;;;;8.85;3.33;;;;;;;;;;4925246;29;20032;-85
2021/06/20 12:00:31;;;;;;;9.75;3.50;;;;;;;;;;4925151;29;20032;-84
2021/06/20 12:03:00;;;;;;;9.93;3.50;;;;;;;;;;4926947;29;20099;-86
2021/06/20 12:05:27;;;;;;;10.32;3.25;;;;;;;;;;4940542;29;20051;-85
2021/06/20 12:07:53;;;;;;;9.48;3.40;;;;;;;;;;4921376;29;20042;-86
2021/06/20 12:10:20;;;;;;;8.82;3.53;;;;;;;;;;4927482;29;20134;-86
2021/06/20 12:12:46;;;;;;;11.10;3.80;;;;;;;;;;4929949;29;20074;-86
2021/06/20 12:15:13;;;;;;;10.27;3.63;;;;;;;;;;4948734;29;20024;-86
2021/06/20 12:17:39;;;;;;;10.32;3.85;;;;;;;;;;4957322;29;20051;-86
2021/06/20 12:20:07;;;;;;;9.43;3.33;;;;;;;;;;4948890;29;20027;-86
2021/06/20 12:22:42;;;;;;;7.60;3.47;;;;;;;;;;4931884;29;20035;-86
2021/06/20 12:25:09;;;;;;;9.57;3.78;;;;;;;;;;4947742;29;20522;-86
2021/06/20 12:27:36;;;;;;;9.75;3.80;;;;;;;;;;4930840;29;20035;-86
2021/06/20 12:30:16;;;;;;;8.68;3.63;;;;;;;;;;4930560;29;20023;-86
2021/06/20 12:32:42;;;;;;;8.57;3.67;;;;;;;;;;4931755;29;20015;-86
2021/06/20 12:35:09;;;;;;;11.90;3.10;;;;;;;;;;4940258;29;20605;-87
2021/06/20 12:37:40;;;;;;;10.55;3.97;;;;;;;;;;4947072;29;20027;-86
2021/06/20 12:40:10;;;;;;;10.32;3.13;;;;;;;;;;4953922;29;20027;-87
2021/06/20 12:42:43;;;;;;;10.32;2.95;;;;;;;;;;4953911;29;20035;-87
2021/06/20 12:45:18;;;;;;;9.75;3.70;;;;;;;;;;4943262;29;20471;-86
2021/06/20 12:47:44;;;;;;;9.25;3.60;;;;;;;;;;4939966;29;20027;-87
2021/06/20 12:50:10;;;;;;;10.57;3.53;;;;;;;;;;4946658;29;20411;-87
2021/06/20 12:52:36;;;;;;;12.57;3.83;;;;;;;;;;4938265;29;20090;-85
2021/06/20 12:55:14;;;;;;;11.57;3.20;;;;;;;;;;4937519;29;20037;-86
2021/06/20 12:57:48;;;;;;;11.80;3.63;;;;;;;;;;4946916;29;20498;-86
2021/06/20 13:00:15;;;;;;;9.20;3.60;;;;;;;;;;4931294;29;20972;-86
2021/06/20 13:02:41;;;;;;;12.55;4.00;;;;;;;;;;4946831;29;20031;-87
2021/06/20 13:05:07;;;;;;;9.82;4.00;;;;;;;;;;4952788;29;20028;-88
2021/06/20 13:07:45;;;;;;;11.18;4.38;;;;;;;;;;4957977;29;20460;-86
2021/06/20 13:10:16;;;;;;;12.07;4.32;;;;;;;;;;4960476;28;20035;-86
2021/06/20 13:12:49;;;;;;;10.82;3.90;;;;;;;;;;4939337;29;20034;-87
2021/06/20 13:15:21;;;;;;;10.13;4.13;;;;;;;;;;4937958;29;20019;-86
2021/06/20 13:17:51;;;;;;;11.25;3.55;;;;;;;;;;4941015;29;20387;-87
2021/06/20 13:20:19;;;;;;;12.45;3.83;;;;;;;;;;4954450;29;20015;-88
2021/06/20 13:22:56;;;;;;;10.15;3.95;;;;;;;;;;4938525;29;20047;-88
2021/06/20 13:25:23;;;;;;;10.27;3.50;;;;;;;;;;4939047;29;20547;-88
2021/06/20 13:27:59;;;;;;;13.90;3.67;;;;;;;;;;4943536;29;20028;-88
2021/06/20 13:30:34;;;;;;;9.77;3.30;;;;;;;;;;4945613;29;20536;-88
2021/06/20 13:33:14;;;;;;;12.32;3.90;;;;;;;;;;4927541;29;20023;-87
2021/06/20 13:35:40;;;;;;;13.82;3.80;;;;;;;;;;4954782;29;20036;-88